Terminal Aerodrome Forecast
Issued by NWS

Home | Current Version | Previous Version | Text Only | Print | Product List | Glossary On
Versions: 1 2 3 4 5 6 7 8 9 10 11 12 13 14 15 16 17 18 19 20 21
000
FTAK31 PAFA 301635 AAC
TAFAQT
TAF AMD
PAQT 301635Z 3017/3112 10008KT 2SM BR OVC002
      TEMPO 3017/3018 4SM BR OVC004
     FM301800 09010KT P6SM BKN004
     FM301900 09010KT P6SM FEW004
     FM302000 07009KT P6SM SCT010
     FM310900 05005KT 1SM BR OVC003=

USA.gov is the U.S. government's official web portal to all federal, state and local government web resources and services.